Terminal Aerodrome Forecast
Issued by NWS Upton, NY

Home | Current Version | Previous Version | Text Only | Print | Product List | Glossary On
Versions: 1 2 3 4 5 6 7 8 9 10 11 12 13 14 15 16 17 18 19 20 21 22 23 24 25 26 27 28 29 30 31 32 33 34
000
FTUS41 KOKX 210500 RRA
TAFJFK
TAF
KJFK 210548Z 2106/2212 VRB05KT 5SM BR SCT007 BKN015
      TEMPO 2106/2108 2SM SHRA BR SCT007 BKN015
     FM210900 VRB05KT 5SM BR SCT007 BKN015
      TEMPO 2109/2113 5SM BR BKN007
     FM211400 VRB05KT P6SM SCT015 BKN025
     FM211600 15008KT P6SM SCT025 BKN035
     FM211800 16008KT P6SM FEW025 SCT250
     FM220100 23008KT P6SM SCT040 BKN250
     FM220500 28010KT P6SM SCT040=

USA.gov is the U.S. government's official web portal to all federal, state and local government web resources and services.